1H1 weather

Airlane Enterprises Airport
Clay, New York, United States

Public forecast

Using degrees Fahrenheit for public forecast. Weather courtesy of forecast.io.

METAR (pilot weather report)

Closest report is Syracuse Hancock International Airport, 6.5 nm (12.0 km) SSE. Retrieved 2019/07/19 15:54 UTC (27 minutes ago):

KSYR 191554Z 24008KT 10SM SCT029 BKN047 OVC055 29/22 A2985 RMK AO2 SLP101 T02890222

TAF (pilot weather forecast)

Closest forecast is Syracuse Hancock International Airport, 6.5 nm (12.0 km) SSE. Retrieved 2019/07/19 12:24 UTC (4 hours ago):

TAF KSYR 191122Z 1912/2012 VRB03KT P6SM FEW050 SCT200 FM191400 22006KT P6SM SCT060 BKN120 FM191700 25008KT P6SM BKN050 FM200400 24004KT P6SM BKN060